Green Valley, Illinois
Current Conditions -  °F | °C
As of 5:54 PM on Thursday 18 Dec 2014 (Local Time) from KPIA Reporting Station
Broken Clouds Broken Clouds  
Wind Chill: 27°   Ceiling: 5000
Heat Index: 27°   Visibility: 10mi
Dew Point: 18°   Wind: 0mph
Humidity: 69%   Direction: NA
Pressure: 30.27"   Gusts: NA
Location:  40.41°N, 89.64°W
Report Text: KPIA 182354Z 00000KT 10SM BKN050 M03/M08 A3027 RMK AO2 SLP262 T10281078 11011 21028 53010
Loading
Personal Weather Stations






























Interactive Weather Map New forecast layout! Learn more

10-Day Weather Forecast

Advertisements
Track Severe Weather on mobile